createdAt,value
2022-09-18T00:01:40.538Z,99156.84
2022-09-18T00:04:12.247Z,99151.97
2022-09-18T00:06:42.082Z,99153.50
2022-09-18T00:09:13.747Z,99162.16
2022-09-18T00:11:44.915Z,99162.16
2022-09-18T00:14:17.306Z,99164.44
2022-09-18T00:16:46.251Z,99167.25
2022-09-18T00:19:15.797Z,99172.34
2022-09-18T00:21:47.241Z,99183.03
2022-09-18T00:24:18.766Z,99186.59
2022-09-18T00:26:48.406Z,99191.69
2022-09-18T00:29:18.945Z,99194.75
2022-09-18T00:31:47.482Z,99201.13
2022-09-18T00:34:17.238Z,99205.44
2022-09-18T00:36:45.766Z,99209.78
2022-09-18T00:39:14.669Z,99202.91
2022-09-18T00:41:45.354Z,99218.44
2022-09-18T00:44:40.219Z,99218.69
2022-09-18T00:47:16.652Z,99232.19
2022-09-18T00:50:02.611Z,99225.56
2022-09-18T00:52:51.123Z,99231.41
2022-09-18T00:55:25.136Z,99235.22
2022-09-18T00:57:56.531Z,99236.22
2022-09-18T01:00:25.517Z,99244.88
2022-09-18T01:02:55.082Z,99248.72
2022-09-18T01:05:42.970Z,99251.75
2022-09-18T01:08:48.166Z,99259.66
2022-09-18T01:11:53.058Z,99262.69
2022-09-18T01:14:45.618Z,99269.84
2022-09-18T01:18:01.072Z,99270.09
2022-09-18T01:20:55.765Z,99264.22
2022-09-18T01:23:45.320Z,99279.00
2022-09-18T01:26:35.212Z,99282.06
2022-09-18T01:29:15.146Z,99283.81
2022-09-18T01:31:47.428Z,99285.34
2022-09-18T01:34:42.852Z,99292.47
2022-09-18T01:37:47.811Z,99303.94
2022-09-18T01:40:28.345Z,99306.00
2022-09-18T01:43:01.176Z,99307.53
2022-09-18T01:45:37.407Z,99300.63
2022-09-18T01:48:09.651Z,99304.44
2022-09-18T01:50:48.902Z,99302.38
2022-09-18T01:53:24.895Z,99302.63
2022-09-18T01:56:00.687Z,99302.34
2022-09-18T01:58:30.453Z,99304.63
2022-09-18T02:01:05.214Z,99298.75
2022-09-18T02:03:42.726Z,99297.72
2022-09-18T02:06:27.557Z,99306.84
2022-09-18T02:08:59.286Z,99312.19
2022-09-18T02:11:27.824Z,99312.44
2022-09-18T02:14:13.433Z,99313.66
2022-09-18T02:16:41.938Z,99310.56
2022-09-18T02:19:43.720Z,99303.66
2022-09-18T02:22:16.585Z,99309.28
2022-09-18T02:24:47.986Z,99315.69
2022-09-18T02:27:18.871Z,99310.84
2022-09-18T02:29:48.897Z,99305.97
2022-09-18T02:32:17.472Z,99299.06
2022-09-18T02:34:46.039Z,99302.66
2022-09-18T02:37:23.299Z,99297.03
2022-09-18T02:39:57.525Z,99291.69
2022-09-18T02:42:37.006Z,99288.34
2022-09-18T02:45:17.235Z,99285.25
2022-09-18T02:47:56.124Z,99291.09
2022-09-18T02:50:41.013Z,99286.72
2022-09-18T02:53:47.289Z,99269.56
2022-09-18T02:56:37.545Z,99279.22
2022-09-18T02:59:33.229Z,99278.19
2022-09-18T03:02:02.012Z,99271.53
2022-09-18T03:04:31.273Z,99282.72
2022-09-18T03:06:59.775Z,99278.84
2022-09-18T03:09:30.930Z,99290.56
2022-09-18T03:11:59.626Z,99287.44
2022-09-18T03:14:28.062Z,99275.91
2022-09-18T03:16:56.478Z,99272.31
2022-09-18T03:19:25.022Z,99270.50
2022-09-18T03:21:54.010Z,99267.84
2022-09-18T03:24:22.731Z,99272.94
2022-09-18T03:26:53.741Z,99259.59
2022-09-18T03:29:22.346Z,99261.56
2022-09-18T03:31:50.890Z,99256.66
2022-09-18T03:34:19.648Z,99258.66
2022-09-18T03:36:50.844Z,99253.72
2022-09-18T03:39:20.019Z,99255.16
2022-09-18T03:41:48.526Z,99243.06
2022-09-18T03:44:17.051Z,99242.03
2022-09-18T03:46:45.619Z,99235.56
2022-09-18T03:49:14.114Z,99232.13
2022-09-18T03:51:42.600Z,99223.06
2022-09-18T03:54:11.126Z,99223.25
2022-09-18T03:56:40.051Z,99214.94
2022-09-18T03:59:11.075Z,99215.38
2022-09-18T04:01:39.664Z,99219.63
2022-09-18T04:04:08.278Z,99208.16
2022-09-18T04:06:36.955Z,99209.66
2022-09-18T04:09:05.534Z,99210.66
2022-09-18T04:11:34.036Z,99207.75
2022-09-18T04:14:02.605Z,99210.28
2022-09-18T04:16:31.217Z,99202.47
2022-09-18T04:18:59.824Z,99200.88
2022-09-18T04:21:28.270Z,99190.81
2022-09-18T04:23:59.427Z,99185.81
2022-09-18T04:26:28.341Z,99179.09
2022-09-18T04:28:56.846Z,99175.69
2022-09-18T04:31:25.436Z,99171.25
2022-09-18T04:33:53.882Z,99171.69
2022-09-18T04:36:22.346Z,99166.16
2022-09-18T04:38:50.770Z,99163.78
2022-09-18T04:41:19.379Z,99154.16
2022-09-18T04:43:47.853Z,99153.81
2022-09-18T04:46:16.404Z,99148.41
2022-09-18T04:48:49.330Z,99147.84
2022-09-18T04:51:18.370Z,99138.31
2022-09-18T04:53:47.036Z,99133.63
2022-09-18T04:56:15.491Z,99132.34
2022-09-18T04:58:43.971Z,99124.31
2022-09-18T05:01:12.630Z,99117.16
2022-09-18T05:03:41.180Z,99116.28
2022-09-18T05:06:09.944Z,99106.19
2022-09-18T05:08:38.431Z,99098.94
2022-09-18T05:11:06.959Z,99085.47
2022-09-18T05:13:35.413Z,99082.53
2022-09-18T05:16:03.948Z,99075.38
2022-09-18T05:18:32.935Z,99063.53
2022-09-18T05:21:06.828Z,99060.16
2022-09-18T05:23:35.794Z,99047.06
2022-09-18T05:26:04.981Z,99039.56
2022-09-18T05:28:33.647Z,99024.56
2022-09-18T05:31:02.830Z,99020.97
2022-09-18T05:33:31.507Z,99013.28
2022-09-18T05:36:00.387Z,99012.50
2022-09-18T05:38:28.890Z,99010.25
2022-09-18T05:41:02.812Z,99003.09
2022-09-18T05:43:32.218Z,98993.88
2022-09-18T05:46:03.376Z,98990.84
2022-09-18T05:48:32.199Z,98979.56
2022-09-18T05:51:00.657Z,98968.47
2022-09-18T05:53:29.151Z,98961.19
2022-09-18T05:55:57.690Z,98960.41
2022-09-18T05:58:26.333Z,98958.22
2022-09-18T06:00:58.857Z,98953.53
2022-09-18T06:03:27.467Z,98944.50
2022-09-18T06:05:56.679Z,98943.41
2022-09-18T06:08:25.475Z,98940.38
2022-09-18T06:10:55.752Z,98930.97
2022-09-18T06:13:24.376Z,98933.97
2022-09-18T06:15:53.332Z,98933.63
2022-09-18T06:18:22.086Z,98924.59
2022-09-18T06:20:59.429Z,98922.75
2022-09-18T06:23:29.736Z,98913.75
2022-09-18T06:26:02.597Z,98904.31
2022-09-18T06:28:35.292Z,98906.91
2022-09-18T06:31:06.907Z,98910.84
2022-09-18T06:33:37.223Z,98899.91
2022-09-18T06:36:09.998Z,98897.66
2022-09-18T06:38:38.492Z,98895.19
2022-09-18T06:41:07.148Z,98889.91
2022-09-18T06:43:36.025Z,98887.63
2022-09-18T06:46:05.560Z,98888.19
2022-09-18T06:48:34.026Z,98871.59
2022-09-18T06:51:03.172Z,98879.84
2022-09-18T06:53:31.686Z,98873.25
2022-09-18T06:56:01.413Z,98867.41
2022-09-18T06:58:30.211Z,98866.44
2022-09-18T07:01:02.060Z,98864.94
2022-09-18T07:03:30.709Z,98859.09
2022-09-18T07:05:59.245Z,98852.13
2022-09-18T07:08:27.770Z,98846.13
2022-09-18T07:11:01.244Z,98842.41
2022-09-18T07:13:33.957Z,98838.72
2022-09-18T07:16:02.555Z,98833.13
2022-09-18T07:18:31.292Z,98830.13
2022-09-18T07:21:03.220Z,98821.50
2022-09-18T07:23:34.149Z,98825.72
2022-09-18T07:26:03.115Z,98822.53
2022-09-18T07:28:31.810Z,98822.94
2022-09-18T07:31:05.467Z,98825.81
2022-09-18T07:33:34.651Z,98822.63
2022-09-18T07:36:07.848Z,98818.13
2022-09-18T07:38:36.450Z,98817.56
2022-09-18T07:41:05.716Z,98820.25
2022-09-18T07:43:34.122Z,98817.63
2022-09-18T07:46:03.857Z,98807.09
2022-09-18T07:48:32.373Z,98815.56
2022-09-18T07:51:00.921Z,98804.44
2022-09-18T07:53:30.604Z,98811.16
2022-09-18T07:55:59.200Z,98810.78
2022-09-18T07:58:28.050Z,98803.44
2022-09-18T08:00:58.242Z,98797.38
2022-09-18T08:03:26.738Z,98796.41
2022-09-18T08:05:55.893Z,98799.03
2022-09-18T08:08:24.989Z,98788.88
2022-09-18T08:10:53.676Z,98787.91
2022-09-18T08:13:22.174Z,98775.47
2022-09-18T08:15:50.709Z,98779.38
2022-09-18T08:18:21.722Z,98779.94
2022-09-18T08:20:50.259Z,98775.59
2022-09-18T08:23:18.725Z,98766.19
2022-09-18T08:25:48.574Z,98760.16
2022-09-18T08:28:17.101Z,98760.34
2022-09-18T08:30:45.742Z,98758.66
2022-09-18T08:33:14.398Z,98760.50
2022-09-18T08:35:42.855Z,98765.22
2022-09-18T08:38:13.021Z,98754.47
2022-09-18T08:40:42.234Z,98758.63
2022-09-18T08:43:23.374Z,98759.94
2022-09-18T08:46:10.684Z,98759.72
2022-09-18T08:48:52.330Z,98751.06
2022-09-18T08:51:51.220Z,98749.56
2022-09-18T08:54:28.676Z,98746.88
2022-09-18T08:56:58.959Z,98742.69
2022-09-18T08:59:53.241Z,98735.16
2022-09-18T09:02:45.306Z,98735.28
2022-09-18T09:05:20.529Z,98732.81
2022-09-18T09:08:18.170Z,98738.78
2022-09-18T09:11:32.574Z,98735.56
2022-09-18T09:14:57.044Z,98740.25
2022-09-18T09:17:56.584Z,98746.25
2022-09-18T09:20:37.831Z,98750.91
2022-09-18T09:23:44.680Z,98761.44
2022-09-18T09:26:24.762Z,98774.03
2022-09-18T09:29:13.788Z,98778.16
2022-09-18T09:31:50.242Z,98782.28
2022-09-18T09:34:32.701Z,98784.34
2022-09-18T09:37:07.846Z,98780.56
2022-09-18T09:39:43.084Z,98772.09
2022-09-18T09:43:06.724Z,98777.94
2022-09-18T09:45:43.903Z,98775.88
2022-09-18T09:48:31.638Z,98770.25
2022-09-18T09:51:26.561Z,98769.50
2022-09-18T09:53:57.036Z,98773.81
2022-09-18T09:56:25.828Z,98777.41
2022-09-18T09:59:07.613Z,98776.63
2022-09-18T10:01:43.440Z,98780.75
2022-09-18T10:04:34.948Z,98780.75
2022-09-18T10:07:40.786Z,98787.91
2022-09-18T10:10:25.126Z,98789.97
2022-09-18T10:12:56.283Z,98793.00
2022-09-18T10:15:37.100Z,98803.94
2022-09-18T10:18:19.488Z,98809.00
2022-09-18T10:20:52.352Z,98811.28
2022-09-18T10:23:47.007Z,98819.19
2022-09-18T10:27:02.202Z,98819.94
2022-09-18T10:29:35.027Z,98825.03
2022-09-18T10:32:05.507Z,98835.53
2022-09-18T10:34:38.601Z,98840.63
2022-09-18T10:37:07.795Z,98843.25
2022-09-18T10:39:40.151Z,98848.34
2022-09-18T10:42:15.735Z,98849.63
2022-09-18T10:44:52.597Z,98861.81
2022-09-18T10:47:28.677Z,98868.56
2022-09-18T10:50:07.262Z,98878.47
2022-09-18T10:52:48.913Z,98876.53
2022-09-18T10:55:23.861Z,98871.00
2022-09-18T10:57:58.423Z,98864.94
2022-09-18T11:00:28.048Z,98872.25
2022-09-18T11:03:00.783Z,98876.16
2022-09-18T11:05:38.864Z,98883.97
2022-09-18T11:08:20.028Z,98891.00
2022-09-18T11:10:51.789Z,98896.22
2022-09-18T11:13:29.720Z,98905.53
2022-09-18T11:16:00.392Z,98907.94
2022-09-18T11:18:31.189Z,98918.78
2022-09-18T11:21:04.145Z,98930.38
2022-09-18T11:23:38.017Z,98943.50
2022-09-18T11:26:30.394Z,98957.88
2022-09-18T11:29:05.683Z,98951.81
2022-09-18T11:32:04.611Z,98948.78
2022-09-18T11:34:45.065Z,98937.09
2022-09-18T11:37:16.152Z,98945.31
2022-09-18T11:39:51.962Z,98950.53
2022-09-18T11:42:20.401Z,98950.31
2022-09-18T11:44:49.454Z,98952.16
2022-09-18T11:47:17.860Z,98965.25
2022-09-18T11:50:10.634Z,98969.59
2022-09-18T11:52:50.117Z,98975.75
2022-09-18T11:55:35.534Z,98972.72
2022-09-18T11:58:24.400Z,98974.25
2022-09-18T12:01:05.257Z,98987.31
2022-09-18T12:03:42.112Z,98992.94
2022-09-18T12:06:19.533Z,98998.56
2022-09-18T12:09:33.856Z,99009.31
2022-09-18T12:12:05.199Z,99017.78
2022-09-18T12:14:49.006Z,99029.53
2022-09-18T12:17:26.165Z,99028.78
2022-09-18T12:20:03.425Z,99029.53
2022-09-18T12:22:48.239Z,99036.47
2022-09-18T12:25:18.783Z,99046.97
2022-09-18T12:28:11.953Z,99057.69
2022-09-18T12:31:09.192Z,99057.22
2022-09-18T12:33:49.532Z,99056.47
2022-09-18T12:36:36.093Z,99057.53
2022-09-18T12:39:20.064Z,99062.41
2022-09-18T12:42:35.908Z,99064.25
2022-09-18T12:45:31.510Z,99064.34
2022-09-18T12:48:26.609Z,99069.75
2022-09-18T12:51:23.925Z,99075.16
2022-09-18T12:54:20.054Z,99073.97
2022-09-18T12:57:06.939Z,99065.03
2022-09-18T13:00:13.394Z,99061.34
2022-09-18T13:03:03.182Z,99058.41
2022-09-18T13:05:44.396Z,99062.38
2022-09-18T13:08:29.910Z,99061.44
2022-09-18T13:11:07.420Z,99065.63
2022-09-18T13:13:50.366Z,99066.78
2022-09-18T13:16:41.935Z,99073.22
2022-09-18T13:19:37.761Z,99072.00
2022-09-18T13:22:13.052Z,99081.81
2022-09-18T13:24:43.596Z,99077.78
2022-09-18T13:27:16.947Z,99070.94
2022-09-18T13:29:54.326Z,99084.00
2022-09-18T13:32:37.250Z,99091.44
2022-09-18T13:35:20.735Z,99096.59
2022-09-18T13:38:03.647Z,99098.19
2022-09-18T13:40:41.782Z,99092.84
2022-09-18T13:43:22.504Z,99095.44
2022-09-18T13:45:51.203Z,99100.81
2022-09-18T13:48:40.602Z,99106.44
2022-09-18T13:51:21.201Z,99107.50
2022-09-18T13:54:21.409Z,99119.78
2022-09-18T13:57:06.060Z,99123.63
2022-09-18T13:59:52.552Z,99137.44
2022-09-18T14:02:24.103Z,99140.00
2022-09-18T14:05:05.328Z,99140.75
2022-09-18T14:07:33.750Z,99145.59
2022-09-18T14:10:04.970Z,99146.13
2022-09-18T14:12:36.290Z,99138.25
2022-09-18T14:15:26.913Z,99136.72
2022-09-18T14:18:16.648Z,99128.28
2022-09-18T14:20:55.180Z,99130.88
2022-09-18T14:23:41.855Z,99123.72
2022-09-18T14:26:33.241Z,99122.44
2022-09-18T14:29:16.659Z,99132.16
2022-09-18T14:31:55.281Z,99125.78
2022-09-18T14:34:41.037Z,99148.25
2022-09-18T14:37:29.977Z,99161.00
2022-09-18T14:40:00.024Z,99167.16
2022-09-18T14:42:34.312Z,99168.66
2022-09-18T14:45:15.313Z,99164.56
2022-09-18T14:47:49.357Z,99158.97
2022-09-18T14:50:34.818Z,99168.13
2022-09-18T14:53:20.916Z,99170.94
2022-09-18T14:56:10.540Z,99171.94
2022-09-18T14:58:44.774Z,99160.72
2022-09-18T15:01:19.944Z,99166.56
2022-09-18T15:03:51.494Z,99163.00
2022-09-18T15:06:25.207Z,99164.50
2022-09-18T15:08:56.422Z,99167.31
2022-09-18T15:11:34.686Z,99161.69
2022-09-18T15:14:33.316Z,99173.19
2022-09-18T15:17:06.962Z,99179.06
2022-09-18T15:19:36.636Z,99177.00
2022-09-18T15:22:05.190Z,99169.34
2022-09-18T15:24:33.705Z,99170.13
2022-09-18T15:27:05.732Z,99173.69
2022-09-18T15:29:44.098Z,99168.84
2022-09-18T15:32:38.579Z,99168.84
2022-09-18T15:35:09.802Z,99180.06
2022-09-18T15:37:39.521Z,99185.69
2022-09-18T15:40:20.258Z,99185.69
2022-09-18T15:42:59.493Z,99186.44
2022-09-18T15:45:31.078Z,99182.13
2022-09-18T15:48:02.434Z,99186.44
2022-09-18T15:50:36.278Z,99185.69
2022-09-18T15:53:23.467Z,99189.25
2022-09-18T15:55:59.288Z,99195.63
2022-09-18T15:58:34.343Z,99196.94
2022-09-18T16:01:06.264Z,99200.50
2022-09-18T16:03:35.670Z,99198.44
2022-09-18T16:06:08.683Z,99193.34
2022-09-18T16:08:40.047Z,99193.34
2022-09-18T16:11:08.713Z,99188.50
2022-09-18T16:13:40.898Z,99189.78
2022-09-18T16:16:15.475Z,99189.00
2022-09-18T16:18:57.578Z,99191.06
2022-09-18T16:21:30.320Z,99187.47
2022-09-18T16:24:02.167Z,99188.25
2022-09-18T16:26:33.970Z,99187.47
2022-09-18T16:29:22.497Z,99191.06
2022-09-18T16:31:51.082Z,99197.19
2022-09-18T16:34:30.633Z,99192.88
2022-09-18T16:36:59.405Z,99184.94
2022-09-18T16:39:28.678Z,99176.28
2022-09-18T16:41:57.141Z,99183.94
2022-09-18T16:44:26.077Z,99182.41
2022-09-18T16:47:00.376Z,99180.13
2022-09-18T16:49:41.432Z,99184.00
2022-09-18T16:52:11.265Z,99176.84
2022-09-18T16:54:39.801Z,99177.38
2022-09-18T16:57:15.614Z,99175.34
2022-09-18T16:59:45.869Z,99177.38
2022-09-18T17:02:17.783Z,99169.72
2022-09-18T17:04:46.540Z,99163.34
2022-09-18T17:07:15.084Z,99172.00
2022-09-18T17:09:43.700Z,99163.56
2022-09-18T17:12:12.156Z,99162.06
2022-09-18T17:14:42.102Z,99155.91
2022-09-18T17:17:10.616Z,99160.00
2022-09-18T17:19:40.562Z,99152.34
2022-09-18T17:22:09.959Z,99146.72
2022-09-18T17:24:38.776Z,99138.31
2022-09-18T17:27:07.322Z,99143.91
2022-09-18T17:29:35.808Z,99150.81
2022-09-18T17:32:04.692Z,99147.78
2022-09-18T17:34:33.439Z,99140.13
2022-09-18T17:37:03.554Z,99142.69
2022-09-18T17:39:32.010Z,99139.66
2022-09-18T17:42:00.647Z,99140.94
2022-09-18T17:44:29.664Z,99136.59
2022-09-18T17:46:58.272Z,99135.84
2022-09-18T17:49:27.194Z,99135.84
2022-09-18T17:51:55.661Z,99141.22
2022-09-18T17:54:24.368Z,99141.75
2022-09-18T17:56:53.002Z,99142.28
2022-09-18T17:59:21.549Z,99149.94
2022-09-18T18:01:50.087Z,99137.72
2022-09-18T18:04:19.081Z,99132.59
2022-09-18T18:06:51.005Z,99126.75
2022-09-18T18:09:19.572Z,99123.72
2022-09-18T18:11:48.617Z,99128.56
2022-09-18T18:14:17.173Z,99120.44
2022-09-18T18:16:49.813Z,99121.72
2022-09-18T18:19:21.261Z,99115.09
2022-09-18T18:21:49.727Z,99107.97
2022-09-18T18:24:20.293Z,99109.78
2022-09-18T18:26:49.423Z,99109.56
2022-09-18T18:29:19.984Z,99116.44
2022-09-18T18:31:50.298Z,99120.31
2022-09-18T18:34:22.253Z,99106.03
2022-09-18T18:36:51.583Z,99117.03
2022-09-18T18:39:21.018Z,99109.88
2022-09-18T18:41:49.570Z,99104.25
2022-09-18T18:44:18.077Z,99107.84
2022-09-18T18:46:46.617Z,99097.88
2022-09-18T18:49:17.366Z,99101.44
2022-09-18T18:51:52.839Z,99102.72
2022-09-18T18:54:23.355Z,99097.88
2022-09-18T18:56:52.782Z,99097.66
2022-09-18T18:59:23.245Z,99088.47
2022-09-18T19:01:52.002Z,99079.28
2022-09-18T19:04:20.620Z,99081.34
2022-09-18T19:06:52.281Z,99078.53
2022-09-18T19:09:23.745Z,99088.22
2022-09-18T19:11:54.037Z,99089.53
2022-09-18T19:14:29.523Z,99090.81
2022-09-18T19:16:58.039Z,99089.78
2022-09-18T19:19:29.358Z,99081.13
2022-09-18T19:22:01.338Z,99079.59
2022-09-18T19:24:31.075Z,99074.00
2022-09-18T19:27:00.072Z,99082.41
2022-09-18T19:29:29.366Z,99078.09
2022-09-18T19:31:58.649Z,99069.13
2022-09-18T19:34:27.187Z,99076.03
2022-09-18T19:36:55.732Z,99090.81
2022-09-18T19:39:25.527Z,99089.31
2022-09-18T19:42:05.371Z,99084.97
2022-09-18T19:44:47.198Z,99078.59
2022-09-18T19:47:27.807Z,99084.97
2022-09-18T19:49:59.962Z,99070.72
2022-09-18T19:52:31.916Z,99071.47
2022-09-18T19:55:00.843Z,99065.34
2022-09-18T19:57:31.138Z,99070.19
2022-09-18T20:00:02.082Z,99070.94
2022-09-18T20:02:30.509Z,99057.69
2022-09-18T20:04:59.534Z,99062.00
2022-09-18T20:07:28.005Z,99057.69
2022-09-18T20:09:56.526Z,99062.53
2022-09-18T20:12:25.354Z,99057.69
2022-09-18T20:14:53.869Z,99056.91
2022-09-18T20:17:22.398Z,99052.06
2022-09-18T20:19:51.302Z,99053.59
2022-09-18T20:22:19.908Z,99060.50
2022-09-18T20:24:48.323Z,99054.13
2022-09-18T20:27:16.991Z,99049.25
2022-09-18T20:29:45.506Z,99039.31
2022-09-18T20:32:14.315Z,99042.13
2022-09-18T20:34:47.117Z,99050.56
2022-09-18T20:37:16.331Z,99052.06
2022-09-18T20:39:45.249Z,99040.09
2022-09-18T20:42:13.763Z,99039.56
2022-09-18T20:44:42.229Z,99039.56
2022-09-18T20:47:10.886Z,99042.59
2022-09-18T20:49:41.210Z,99044.88
2022-09-18T20:52:14.306Z,99044.88
2022-09-18T20:54:43.136Z,99052.81
2022-09-18T20:57:12.018Z,99056.38
2022-09-18T20:59:42.462Z,99062.75
2022-09-18T21:02:11.258Z,99057.88
2022-09-18T21:04:41.150Z,99062.22
2022-09-18T21:07:10.948Z,99058.13
2022-09-18T21:09:39.617Z,99049.19
2022-09-18T21:12:08.292Z,99043.03
2022-09-18T21:14:37.958Z,99043.81
2022-09-18T21:17:09.762Z,99043.81
2022-09-18T21:19:39.439Z,99043.03
2022-09-18T21:22:08.034Z,99052.47
2022-09-18T21:24:36.531Z,99050.94
2022-09-18T21:27:05.219Z,99049.69
2022-09-18T21:29:33.682Z,99056.06
2022-09-18T21:32:02.208Z,99046.34
2022-09-18T21:34:34.512Z,99059.63
2022-09-18T21:37:09.184Z,99054.75
2022-09-18T21:39:38.184Z,99057.03
2022-09-18T21:42:10.456Z,99052.72
2022-09-18T21:44:40.212Z,99060.63
2022-09-18T21:47:11.795Z,99062.66
2022-09-18T21:49:40.292Z,99057.03
2022-09-18T21:52:09.619Z,99052.72
2022-09-18T21:54:38.224Z,99060.63
2022-09-18T21:57:07.443Z,99063.41
2022-09-18T21:59:36.980Z,99059.84
2022-09-18T22:02:06.606Z,99061.91
2022-09-18T22:04:35.087Z,99071.06
2022-09-18T22:07:03.883Z,99066.22
2022-09-18T22:09:35.470Z,99071.06
2022-09-18T22:12:04.016Z,99077.69
2022-09-18T22:14:34.948Z,99074.88
2022-09-18T22:17:06.933Z,99079.72
2022-09-18T22:19:39.266Z,99086.09
2022-09-18T22:22:10.032Z,99083.28
2022-09-18T22:24:39.818Z,99081.25
2022-09-18T22:27:11.252Z,99084.59
2022-09-18T22:29:42.857Z,99085.88
2022-09-18T22:32:11.936Z,99100.13
2022-09-18T22:34:42.670Z,99088.16
2022-09-18T22:37:12.193Z,99093.00
2022-09-18T22:39:40.741Z,99096.56
2022-09-18T22:42:09.235Z,99087.38
2022-09-18T22:44:37.711Z,99089.66
2022-09-18T22:47:06.687Z,99098.84
2022-09-18T22:49:35.103Z,99094.53
2022-09-18T22:52:03.785Z,99100.13
2022-09-18T22:54:32.316Z,99100.91
2022-09-18T22:57:00.805Z,99099.63
2022-09-18T22:59:29.637Z,99102.41
2022-09-18T23:02:03.235Z,99098.09
2022-09-18T23:04:34.575Z,99102.94
2022-09-18T23:07:04.401Z,99107.28
2022-09-18T23:09:33.027Z,99105.22
2022-09-18T23:12:01.637Z,99107.28
2022-09-18T23:14:32.320Z,99105.22
2022-09-18T23:17:01.774Z,99098.84
2022-09-18T23:19:33.305Z,99102.41
2022-09-18T23:22:02.216Z,99105.22
2022-09-18T23:24:30.710Z,99107.50
2022-09-18T23:27:00.029Z,99111.06
2022-09-18T23:29:29.942Z,99118.22
2022-09-18T23:31:58.777Z,99120.25
2022-09-18T23:34:31.195Z,99119.50
2022-09-18T23:37:00.953Z,99123.06
2022-09-18T23:39:34.865Z,99121.00
2022-09-18T23:42:06.644Z,99131.72
2022-09-18T23:44:35.543Z,99134.53
2022-09-18T23:47:04.632Z,99139.63
2022-09-18T23:49:33.363Z,99148.28
2022-09-18T23:52:02.548Z,99140.59
2022-09-18T23:54:33.253Z,99142.88
2022-09-18T23:57:01.858Z,99145.94
2022-09-18T23:59:30.528Z,99153.31
